Time;durP1;ratioP1;P1;durP2;ratioP2;P2;SDS_P1;SDS_P2;PMS_P1;PMS_P2;Temp;Humidity;BMP_temperature;BMP_pressure;BME280_temperature;BME280_humidity;BME280_pressure;Samples;Min_cycle;Max_cycle;Signal;HPM_P1;HPM_P2
2022/05/24 00:02:19;;;;;;;3.78;2.10;;;;;;;;;;4993766;28;20022;-66
2022/05/24 00:04:45;;;;;;;2.83;1.60;;;;;;;;;;4993787;28;20018;-66
2022/05/24 00:07:11;;;;;;;3.35;1.80;;;;;;;;;;5003939;28;20368;-67
2022/05/24 00:09:37;;;;;;;4.45;1.58;;;;;;;;;;5013377;28;20021;-67
2022/05/24 00:12:02;;;;;;;3.25;1.20;;;;;;;;;;5005228;28;20026;-66
2022/05/24 00:17:03;;;;;;;4.05;1.77;;;;;;;;;;5199841;23;20062;-66
2022/05/24 00:19:29;;;;;;;2.38;1.35;;;;;;;;;;4993092;28;20042;-67
2022/05/24 00:21:54;;;;;;;2.15;1.20;;;;;;;;;;4992154;28;20057;-69
2022/05/24 00:24:21;;;;;;;3.88;1.60;;;;;;;;;;4992832;28;20471;-68
2022/05/24 00:26:46;;;;;;;4.15;1.63;;;;;;;;;;4993289;28;20030;-66
2022/05/24 00:29:12;;;;;;;2.45;1.42;;;;;;;;;;4993259;28;20022;-68
2022/05/24 00:31:37;;;;;;;5.97;1.58;;;;;;;;;;4993080;28;20022;-68
2022/05/24 00:34:02;;;;;;;5.57;2.03;;;;;;;;;;4992476;28;20467;-68
2022/05/24 00:36:28;;;;;;;3.40;1.40;;;;;;;;;;4991948;28;20037;-69
2022/05/24 00:38:53;;;;;;;4.75;1.63;;;;;;;;;;4992525;28;20018;-68
2022/05/24 00:41:25;;;;;;;5.53;1.80;;;;;;;;;;4993216;28;20109;-69
2022/05/24 00:44:08;;;;;;;2.55;1.55;;;;;;;;;;4993175;28;20034;-68
2022/05/24 00:46:56;;;;;;;2.75;1.58;;;;;;;;;;4992964;28;20117;-67
2022/05/24 00:49:39;;;;;;;3.22;1.55;;;;;;;;;;4992740;28;20045;-68
2022/05/24 00:52:10;;;;;;;3.08;1.83;;;;;;;;;;4994370;28;20546;-69
2022/05/24 00:54:36;;;;;;;7.50;1.70;;;;;;;;;;4980066;28;20033;-68
2022/05/24 00:57:27;;;;;;;2.60;1.40;;;;;;;;;;4979909;28;20026;-68
2022/05/24 01:00:15;;;;;;;4.35;1.73;;;;;;;;;;4979951;28;20023;-68
2022/05/24 01:02:41;;;;;;;3.78;1.95;;;;;;;;;;4980357;28;20030;-68
2022/05/24 01:05:29;;;;;;;3.30;1.80;;;;;;;;;;4979880;28;20037;-67
2022/05/24 01:07:55;;;;;;;5.03;1.70;;;;;;;;;;4980020;28;20413;-68
2022/05/24 01:10:29;;;;;;;6.10;1.67;;;;;;;;;;4980120;28;20113;-68
2022/05/24 01:13:17;;;;;;;4.63;1.63;;;;;;;;;;4979808;28;20114;-64
2022/05/24 01:15:44;;;;;;;5.55;2.08;;;;;;;;;;4979644;28;20518;-67
2022/05/24 01:18:11;;;;;;;4.00;1.65;;;;;;;;;;4999078;28;20097;-67
2022/05/24 01:20:40;;;;;;;4.05;1.80;;;;;;;;;;4999389;28;20372;-67
2022/05/24 01:23:24;;;;;;;2.75;1.60;;;;;;;;;;4999185;28;20022;-67
2022/05/24 01:26:05;;;;;;;2.40;1.30;;;;;;;;;;4998696;28;20092;-67
2022/05/24 01:28:56;;;;;;;3.28;1.73;;;;;;;;;;4999332;28;20058;-66
2022/05/24 01:31:22;;;;;;;;;;;;;;;;;;4992713;28;20511;-67
2022/05/24 01:36:36;;;;;;;3.67;1.77;;;;;;;;;;4999640;28;20037;-66
2022/05/24 01:39:05;;;;;;;3.90;2.33;;;;;;;;;;4999296;28;20030;-67
2022/05/24 01:41:41;;;;;;;2.53;1.48;;;;;;;;;;4999467;28;20037;-67
2022/05/24 01:44:08;;;;;;;2.47;1.50;;;;;;;;;;4999306;28;20037;-66
2022/05/24 01:46:37;;;;;;;3.22;1.48;;;;;;;;;;4999335;28;20041;-67
2022/05/24 01:49:22;;;;;;;3.20;1.60;;;;;;;;;;4999302;28;20034;-66
2022/05/24 01:51:58;;;;;;;3.72;1.88;;;;;;;;;;4999218;28;20022;-66
2022/05/24 01:54:24;;;;;;;2.70;1.85;;;;;;;;;;4999359;28;20026;-67
2022/05/24 01:57:00;;;;;;;2.88;1.70;;;;;;;;;;4998976;28;20041;-66
2022/05/24 01:59:27;;;;;;;5.32;2.92;;;;;;;;;;4999292;28;20026;-67
2022/05/24 02:01:58;;;;;;;5.90;2.20;;;;;;;;;;4999264;28;20033;-66
2022/05/24 02:04:25;;;;;;;3.53;2.10;;;;;;;;;;4996436;28;20034;-67
2022/05/24 02:07:26;;;;;;;3.80;2.10;;;;;;;;;;4996004;28;20054;-68
2022/05/24 02:09:55;;;;;;;2.63;1.77;;;;;;;;;;4955261;29;20063;-67
2022/05/24 02:12:23;;;;;;;5.38;2.72;;;;;;;;;;4954779;29;20035;-67
2022/05/24 02:14:55;;;;;;;4.22;2.00;;;;;;;;;;4955087;29;20041;-67
2022/05/24 02:17:24;;;;;;;4.35;2.53;;;;;;;;;;4954476;29;20050;-67
2022/05/24 02:19:56;;;;;;;4.47;2.58;;;;;;;;;;4954929;29;20037;-67
2022/05/24 02:22:26;;;;;;;3.08;2.10;;;;;;;;;;4954823;29;20059;-67
2022/05/24 02:25:02;;;;;;;5.70;2.67;;;;;;;;;;4954783;29;20047;-67
2022/05/24 02:27:29;;;;;;;3.70;2.28;;;;;;;;;;4954718;29;20390;-68
2022/05/24 02:29:55;;;;;;;11.05;2.70;;;;;;;;;;4954735;29;20194;-67
2022/05/24 02:32:22;;;;;;;3.17;2.05;;;;;;;;;;4954109;29;20031;-66
2022/05/24 02:34:47;;;;;;;4.85;3.00;;;;;;;;;;4954622;29;20488;-67
2022/05/24 02:37:13;;;;;;;4.72;2.30;;;;;;;;;;4954672;29;20050;-66
2022/05/24 02:42:23;;;;;;;4.53;2.90;;;;;;;;;;4954402;29;20123;-66
2022/05/24 02:44:48;;;;;;;5.25;3.10;;;;;;;;;;4990314;28;20038;-65
2022/05/24 02:47:14;;;;;;;4.53;2.97;;;;;;;;;;4995267;28;20061;-70
2022/05/24 02:49:40;;;;;;;6.13;3.03;;;;;;;;;;4995305;28;20030;-65
2022/05/24 02:52:05;;;;;;;4.88;2.75;;;;;;;;;;4995222;28;20050;-67
2022/05/24 02:54:31;;;;;;;4.53;2.50;;;;;;;;;;4995120;28;20030;-67
2022/05/24 02:56:58;;;;;;;5.55;2.40;;;;;;;;;;4994748;28;20026;-66
2022/05/24 02:59:24;;;;;;;3.97;3.03;;;;;;;;;;4995192;28;20054;-66
2022/05/24 03:01:49;;;;;;;5.03;2.85;;;;;;;;;;4995032;28;20031;-67
2022/05/24 03:04:15;;;;;;;2.88;2.28;;;;;;;;;;4994979;28;20884;-68
2022/05/24 03:09:36;;;;;;;4.40;2.92;;;;;;;;;;4994782;28;20487;-67
2022/05/24 03:14:53;;;;;;;5.27;2.93;;;;;;;;;;4994290;28;20034;-66
2022/05/24 03:17:19;;;;;;;4.28;2.70;;;;;;;;;;4994316;28;20042;-67
2022/05/24 03:19:45;;;;;;;4.32;2.10;;;;;;;;;;4994641;28;20026;-66
2022/05/24 03:22:12;;;;;;;6.15;2.47;;;;;;;;;;4994504;28;20029;-64
2022/05/24 03:24:38;;;;;;;5.25;2.75;;;;;;;;;;4994353;28;20079;-67
2022/05/24 03:27:13;;;;;;;7.07;2.92;;;;;;;;;;4994433;28;20498;-67
2022/05/24 03:29:43;;;;;;;2.72;1.95;;;;;;;;;;4994579;28;20049;-67
2022/05/24 03:32:10;;;;;;;5.65;2.90;;;;;;;;;;4993261;28;20112;-66
2022/05/24 03:34:37;;;;;;;3.90;2.47;;;;;;;;;;4993985;28;20034;-66
2022/05/24 03:37:04;;;;;;;3.88;2.42;;;;;;;;;;4994600;28;20030;-67
2022/05/24 03:39:29;;;;;;;4.15;2.55;;;;;;;;;;4994241;28;20038;-66
2022/05/24 03:41:55;;;;;;;7.25;3.05;;;;;;;;;;4999531;28;20026;-67
2022/05/24 03:44:20;;;;;;;7.03;2.53;;;;;;;;;;5001962;28;20053;-67
2022/05/24 03:46:46;;;;;;;2.70;2.00;;;;;;;;;;5003596;28;20459;-67
2022/05/24 03:49:14;;;;;;;4.30;2.72;;;;;;;;;;5002060;28;20129;-67
2022/05/24 03:51:39;;;;;;;7.57;2.63;;;;;;;;;;5001387;28;20100;-67
2022/05/24 03:54:06;;;;;;;4.85;2.70;;;;;;;;;;5002720;28;20451;-67
2022/05/24 03:56:33;;;;;;;3.70;2.33;;;;;;;;;;5007619;28;20026;-68
2022/05/24 03:58:58;;;;;;;9.80;3.38;;;;;;;;;;5013555;28;20025;-68
2022/05/24 04:01:24;;;;;;;4.00;2.15;;;;;;;;;;5013611;28;20087;-68
2022/05/24 04:03:49;;;;;;;5.03;2.83;;;;;;;;;;5013598;28;20034;-68
2022/05/24 04:06:15;;;;;;;3.40;1.67;;;;;;;;;;5013565;28;20445;-68
2022/05/24 04:08:41;;;;;;;9.45;3.47;;;;;;;;;;5013257;28;20030;-68
2022/05/24 04:11:10;;;;;;;6.95;3.22;;;;;;;;;;5013463;28;20088;-69
2022/05/24 04:13:37;;;;;;;4.88;2.55;;;;;;;;;;5013397;28;20475;-68
2022/05/24 04:16:03;;;;;;;4.10;2.50;;;;;;;;;;5013054;28;20072;-69
2022/05/24 04:18:29;;;;;;;7.50;3.72;;;;;;;;;;5001158;28;20105;-67
2022/05/24 04:20:55;;;;;;;7.10;3.38;;;;;;;;;;4993661;28;20050;-69
2022/05/24 04:23:22;;;;;;;5.18;3.40;;;;;;;;;;4993447;28;20379;-69
2022/05/24 04:25:48;;;;;;;4.05;2.70;;;;;;;;;;4991951;28;20545;-68
2022/05/24 04:28:14;;;;;;;4.65;3.28;;;;;;;;;;4992877;28;20475;-69
2022/05/24 04:30:40;;;;;;;8.30;4.13;;;;;;;;;;4993616;28;20080;-69
2022/05/24 04:33:06;;;;;;;4.60;3.17;;;;;;;;;;4993001;28;20485;-68
2022/05/24 04:35:31;;;;;;;5.72;3.53;;;;;;;;;;4993461;28;20026;-69
2022/05/24 04:37:58;;;;;;;8.63;3.70;;;;;;;;;;4993275;28;20058;-70
2022/05/24 04:42:18;;;;;;;7.90;3.47;;;;;;;;;;4993372;28;20026;-69
2022/05/24 04:43:09;;;;;;;5.90;3.97;;;;;;;;;;4992980;28;20514;-69
2022/05/24 04:45:35;;;;;;;12.77;3.65;;;;;;;;;;4993294;28;20046;-68
2022/05/24 04:48:00;;;;;;;3.83;2.78;;;;;;;;;;4993217;28;20108;-69
2022/05/24 04:50:27;;;;;;;4.75;3.22;;;;;;;;;;4993297;28;20028;-68
2022/05/24 04:52:53;;;;;;;4.78;3.70;;;;;;;;;;4992967;28;20113;-68
2022/05/24 04:55:18;;;;;;;6.20;3.50;;;;;;;;;;4993024;28;20547;-67
2022/05/24 04:57:44;;;;;;;7.53;3.60;;;;;;;;;;4993318;28;20030;-68
2022/05/24 05:00:14;;;;;;;6.03;3.47;;;;;;;;;;4993150;28;20050;-68
2022/05/24 05:02:40;;;;;;;9.10;4.43;;;;;;;;;;4993171;28;20100;-68
2022/05/24 05:05:06;;;;;;;7.10;3.80;;;;;;;;;;4992932;28;20027;-68
2022/05/24 05:07:32;;;;;;;5.40;3.55;;;;;;;;;;4992959;28;20029;-69
2022/05/24 05:09:58;;;;;;;6.18;3.50;;;;;;;;;;4993170;28;20116;-69
2022/05/24 05:12:26;;;;;;;5.82;3.22;;;;;;;;;;4993150;28;20074;-68
2022/05/24 05:14:52;;;;;;;6.88;4.13;;;;;;;;;;4992973;28;20022;-69
2022/05/24 05:17:19;;;;;;;6.10;3.92;;;;;;;;;;4992554;28;20050;-67
2022/05/24 05:19:45;;;;;;;6.60;4.05;;;;;;;;;;4992790;28;20387;-66
2022/05/24 05:22:11;;;;;;;7.63;4.00;;;;;;;;;;4992938;28;20489;-66
2022/05/24 05:24:37;;;;;;;9.77;3.85;;;;;;;;;;4992815;28;20073;-66
2022/05/24 05:27:03;;;;;;;5.65;3.88;;;;;;;;;;4993014;28;20448;-68
2022/05/24 05:32:21;;;;;;;5.22;3.30;;;;;;;;;;4992983;28;20395;-68
2022/05/24 05:34:48;;;;;;;6.22;3.60;;;;;;;;;;4992613;28;20504;-67
2022/05/24 05:37:14;;;;;;;4.38;2.33;;;;;;;;;;4992421;28;20039;-69
2022/05/24 05:39:39;;;;;;;3.38;2.53;;;;;;;;;;4996623;28;20500;-69
2022/05/24 05:42:06;;;;;;;9.85;4.10;;;;;;;;;;4996595;28;20022;-70
2022/05/24 05:44:31;;;;;;;4.13;2.95;;;;;;;;;;4996472;28;20026;-68
2022/05/24 05:46:57;;;;;;;8.82;3.78;;;;;;;;;;4996425;28;20029;-68
2022/05/24 05:49:22;;;;;;;7.30;3.50;;;;;;;;;;4996130;28;20034;-69
2022/05/24 05:51:48;;;;;;;5.25;3.25;;;;;;;;;;4996386;28;20023;-68
2022/05/24 05:54:13;;;;;;;7.15;3.85;;;;;;;;;;4994902;28;20084;-68
2022/05/24 05:56:40;;;;;;;7.55;4.15;;;;;;;;;;4996326;28;20478;-68
2022/05/24 05:59:05;;;;;;;6.05;3.35;;;;;;;;;;4978769;28;20379;-70
2022/05/24 06:01:31;;;;;;;6.13;4.07;;;;;;;;;;4996330;28;20027;-68
2022/05/24 06:03:57;;;;;;;6.00;3.50;;;;;;;;;;4995941;28;20026;-70
2022/05/24 06:06:25;;;;;;;7.38;4.22;;;;;;;;;;4996215;28;20491;-69
2022/05/24 06:08:51;;;;;;;8.20;4.60;;;;;;;;;;4995942;28;20037;-69
2022/05/24 06:11:17;;;;;;;4.40;2.63;;;;;;;;;;4996051;28;20395;-69
2022/05/24 06:13:42;;;;;;;5.57;4.22;;;;;;;;;;4995808;28;20046;-69
2022/05/24 06:16:10;;;;;;;5.15;3.55;;;;;;;;;;4995583;28;20042;-69
2022/05/24 06:18:36;;;;;;;6.18;4.03;;;;;;;;;;4995377;28;20034;-69
2022/05/24 06:21:03;;;;;;;7.00;4.82;;;;;;;;;;4995804;28;20452;-69
2022/05/24 06:23:28;;;;;;;6.18;4.47;;;;;;;;;;4995601;28;20029;-69
2022/05/24 06:25:54;;;;;;;7.55;4.72;;;;;;;;;;4995636;28;20022;-69
2022/05/24 06:28:21;;;;;;;4.80;3.65;;;;;;;;;;4995584;28;20495;-69
2022/05/24 06:30:46;;;;;;;5.65;4.40;;;;;;;;;;4995718;28;20033;-70
2022/05/24 06:33:12;;;;;;;7.30;4.25;;;;;;;;;;4995296;28;20073;-69
2022/05/24 06:35:39;;;;;;;7.63;3.75;;;;;;;;;;4995407;28;20502;-70
2022/05/24 06:38:05;;;;;;;8.15;4.78;;;;;;;;;;4994995;28;20093;-69
2022/05/24 06:40:31;;;;;;;6.28;4.05;;;;;;;;;;4995421;28;20464;-69
2022/05/24 06:42:57;;;;;;;7.43;4.65;;;;;;;;;;4995532;28;20054;-69
2022/05/24 06:45:22;;;;;;;8.63;4.80;;;;;;;;;;4995457;28;20034;-69
2022/05/24 06:47:48;;;;;;;8.00;5.20;;;;;;;;;;4995067;28;20061;-71
2022/05/24 06:50:14;;;;;;;6.63;5.00;;;;;;;;;;4994342;28;20018;-70
2022/05/24 06:52:40;;;;;;;6.18;4.13;;;;;;;;;;4995235;28;20093;-68
2022/05/24 06:55:07;;;;;;;6.85;5.20;;;;;;;;;;4994977;28;20035;-70
2022/05/24 06:57:33;;;;;;;7.90;4.95;;;;;;;;;;4995297;28;20033;-69
2022/05/24 07:02:42;;;;;;;6.97;4.47;;;;;;;;;;4995009;28;20033;-70
2022/05/24 07:05:14;;;;;;;7.75;4.88;;;;;;;;;;4994838;28;20038;-69
2022/05/24 07:07:41;;;;;;;6.50;5.00;;;;;;;;;;4994970;28;20033;-68
2022/05/24 07:10:09;;;;;;;21.25;4.10;;;;;;;;;;4994985;28;20018;-69
2022/05/24 07:12:36;;;;;;;10.88;4.53;;;;;;;;;;4994848;28;20022;-69
2022/05/24 07:15:02;;;;;;;6.50;4.47;;;;;;;;;;4994561;28;20096;-69
2022/05/24 07:17:28;;;;;;;6.70;4.97;;;;;;;;;;4994292;28;20042;-69
2022/05/24 07:19:54;;;;;;;6.03;4.45;;;;;;;;;;4994829;28;20030;-69
2022/05/24 07:22:19;;;;;;;7.38;4.35;;;;;;;;;;4994738;28;20038;-68
2022/05/24 07:24:48;;;;;;;10.07;5.75;;;;;;;;;;4994571;28;20030;-68
2022/05/24 07:27:15;;;;;;;9.73;5.38;;;;;;;;;;4994556;28;20030;-71
2022/05/24 07:29:41;;;;;;;7.25;5.35;;;;;;;;;;4994311;28;20026;-68
2022/05/24 07:32:07;;;;;;;8.38;4.88;;;;;;;;;;4994408;28;20431;-69
2022/05/24 07:34:35;;;;;;;6.32;5.07;;;;;;;;;;4994389;28;20041;-67
2022/05/24 07:37:02;;;;;;;8.18;5.47;;;;;;;;;;4994477;28;20379;-69
2022/05/24 07:39:28;;;;;;;9.25;5.65;;;;;;;;;;4994417;28;20481;-69
2022/05/24 07:47:29;;;;;;;6.55;5.22;;;;;;;;;;4994211;28;20080;-69
2022/05/24 07:49:55;;;;;;;10.50;5.78;;;;;;;;;;4994023;28;20105;-70
2022/05/24 07:52:20;;;;;;;6.10;4.05;;;;;;;;;;4994113;28;20077;-69
2022/05/24 07:54:46;;;;;;;9.27;5.30;;;;;;;;;;4993993;28;20065;-70
2022/05/24 07:57:11;;;;;;;9.18;5.88;;;;;;;;;;4993985;28;20105;-69
2022/05/24 07:59:38;;;;;;;8.73;6.13;;;;;;;;;;4993805;28;20108;-70
2022/05/24 08:02:06;;;;;;;9.95;6.18;;;;;;;;;;4989684;28;20031;-69
2022/05/24 08:04:31;;;;;;;10.32;5.88;;;;;;;;;;4993157;28;20022;-69
2022/05/24 08:06:57;;;;;;;9.93;6.78;;;;;;;;;;4993541;28;20022;-69
2022/05/24 08:09:23;;;;;;;8.90;6.28;;;;;;;;;;4990246;28;20049;-69
2022/05/24 08:11:49;;;;;;;9.40;6.30;;;;;;;;;;4993651;28;20049;-70
2022/05/24 08:14:14;;;;;;;9.13;6.88;;;;;;;;;;4993471;28;20029;-70
2022/05/24 08:16:40;;;;;;;10.75;7.07;;;;;;;;;;4992569;28;20050;-69
2022/05/24 08:19:07;;;;;;;11.32;6.63;;;;;;;;;;4993268;28;20498;-70
2022/05/24 08:21:32;;;;;;;9.00;6.32;;;;;;;;;;4993105;28;20101;-69
2022/05/24 08:23:58;;;;;;;10.93;7.35;;;;;;;;;;4993410;28;20105;-69
2022/05/24 08:26:23;;;;;;;8.75;6.82;;;;;;;;;;4992862;28;20033;-70
2022/05/24 08:28:50;;;;;;;13.35;7.50;;;;;;;;;;4993002;28;20112;-70
2022/05/24 08:31:18;;;;;;;11.20;8.05;;;;;;;;;;4993220;28;20045;-67
2022/05/24 08:33:44;;;;;;;10.75;7.70;;;;;;;;;;4993095;28;20031;-68
2022/05/24 08:36:10;;;;;;;10.15;8.00;;;;;;;;;;4993175;28;20034;-68
2022/05/24 08:38:37;;;;;;;10.93;7.88;;;;;;;;;;4993176;28;20402;-68
2022/05/24 08:41:09;;;;;;;14.43;8.18;;;;;;;;;;4993113;28;20439;-69
2022/05/24 08:48:22;;;;;;;13.63;8.43;;;;;;;;;;4992938;28;20034;-69
2022/05/24 08:49:31;;;;;;;10.98;8.27;;;;;;;;;;4992916;28;20605;-69
2022/05/24 08:52:00;;;;;;;11.02;8.75;;;;;;;;;;4991772;28;20042;-69
2022/05/24 08:54:43;;;;;;;11.30;9.00;;;;;;;;;;4992931;28;20034;-70
2022/05/24 08:57:16;;;;;;;11.55;8.48;;;;;;;;;;4992863;28;20558;-69
2022/05/24 08:59:56;;;;;;;11.77;8.18;;;;;;;;;;4992976;28;20033;-66
2022/05/24 09:02:22;;;;;;;9.90;7.73;;;;;;;;;;4993029;28;20383;-67
2022/05/24 09:04:49;;;;;;;10.60;8.60;;;;;;;;;;4993015;28;20445;-67
2022/05/24 09:07:37;;;;;;;15.27;8.85;;;;;;;;;;4992716;28;20101;-69
2022/05/24 09:10:25;;;;;;;12.57;9.10;;;;;;;;;;4992688;28;20165;-68
2022/05/24 09:13:09;;;;;;;11.35;8.48;;;;;;;;;;4991277;28;20029;-67
2022/05/24 09:15:50;;;;;;;11.40;7.75;;;;;;;;;;4994044;28;20108;-67
2022/05/24 09:18:25;;;;;;;10.90;7.47;;;;;;;;;;4995627;28;20069;-67
2022/05/24 09:20:51;;;;;;;9.18;7.13;;;;;;;;;;4996189;28;20026;-68
2022/05/24 09:23:39;;;;;;;9.73;6.85;;;;;;;;;;4995940;28;20501;-68
2022/05/24 09:26:34;;;;;;;7.28;6.55;;;;;;;;;;4995607;28;20050;-68
2022/05/24 09:29:11;;;;;;;8.20;6.47;;;;;;;;;;4995556;28;20126;-68
2022/05/24 09:31:48;;;;;;;7.63;5.97;;;;;;;;;;4994963;28;20033;-69
2022/05/24 09:34:19;;;;;;;9.85;5.90;;;;;;;;;;4995990;28;20030;-68
2022/05/24 09:37:02;;;;;;;7.18;5.15;;;;;;;;;;4996167;28;20190;-69
2022/05/24 09:39:33;;;;;;;6.93;5.70;;;;;;;;;;4995571;28;20029;-67
2022/05/24 09:42:05;;;;;;;7.22;5.07;;;;;;;;;;4995630;28;20042;-68
2022/05/24 09:45:12;;;;;;;10.75;5.22;;;;;;;;;;4995949;28;20072;-69
2022/05/24 09:47:43;;;;;;;6.60;4.63;;;;;;;;;;4995903;28;20026;-68
2022/05/24 09:50:15;;;;;;;7.80;4.80;;;;;;;;;;4995725;28;20038;-68
2022/05/24 09:53:00;;;;;;;5.85;4.40;;;;;;;;;;4996978;28;20032;-70
2022/05/24 09:55:25;;;;;;;6.15;4.43;;;;;;;;;;4996183;28;20029;-69
2022/05/24 09:57:51;;;;;;;5.97;4.30;;;;;;;;;;4995476;28;20022;-72
2022/05/24 10:00:20;;;;;;;10.23;4.45;;;;;;;;;;4996435;28;20034;-69
2022/05/24 10:02:48;;;;;;;7.20;4.33;;;;;;;;;;4996032;28;20034;-70
2022/05/24 10:05:22;;;;;;;4.78;3.92;;;;;;;;;;4996129;28;20036;-68
2022/05/24 10:08:01;;;;;;;6.32;4.70;;;;;;;;;;4995923;28;20034;-68
2022/05/24 10:10:36;;;;;;;6.13;4.60;;;;;;;;;;4995075;28;20081;-68
2022/05/24 10:13:10;;;;;;;6.90;4.97;;;;;;;;;;4990677;28;20475;-67
2022/05/24 10:15:59;;;;;;;5.10;4.05;;;;;;;;;;4989194;28;20057;-71
2022/05/24 10:18:28;;;;;;;6.43;4.55;;;;;;;;;;4998832;28;20028;-69
2022/05/24 10:21:18;;;;;;;5.55;4.25;;;;;;;;;;4995484;28;20050;-69
2022/05/24 10:23:50;;;;;;;5.47;4.13;;;;;;;;;;4992297;28;20033;-69
2022/05/24 10:26:41;;;;;;;6.32;3.97;;;;;;;;;;4994542;28;20502;-70
2022/05/24 10:29:33;;;;;;;6.43;4.65;;;;;;;;;;4995682;28;20034;-69
2022/05/24 10:32:04;;;;;;;6.68;4.55;;;;;;;;;;4994972;28;20030;-68
2022/05/24 10:38:19;;;;;;;7.10;5.20;;;;;;;;;;4995386;28;20080;-66
2022/05/24 10:41:02;;;;;;;6.22;4.78;;;;;;;;;;4992436;28;20046;-65
2022/05/24 10:44:16;;;;;;;9.90;6.13;;;;;;;;;;4987664;28;20117;-67
2022/05/24 10:46:45;;;;;;;9.13;6.18;;;;;;;;;;4982975;28;20045;-66
2022/05/24 10:49:29;;;;;;;11.73;6.70;;;;;;;;;;4988620;28;20439;-67
2022/05/24 10:52:01;;;;;;;12.82;6.97;;;;;;;;;;4986553;28;20403;-69
2022/05/24 10:54:48;;;;;;;8.40;6.32;;;;;;;;;;4985425;28;20030;-69
2022/05/24 10:58:03;;;;;;;9.77;6.70;;;;;;;;;;4989434;28;20053;-70
2022/05/24 11:00:36;;;;;;;7.65;6.30;;;;;;;;;;4957114;28;20451;-67
2022/05/24 11:03:09;;;;;;;10.10;6.55;;;;;;;;;;4972766;28;20109;-68
2022/05/24 11:05:44;;;;;;;8.45;6.78;;;;;;;;;;4948396;28;20117;-68
2022/05/24 11:08:21;;;;;;;9.68;6.43;;;;;;;;;;4958594;28;20035;-68
2022/05/24 11:10:49;;;;;;;11.05;6.95;;;;;;;;;;4958666;28;20529;-67
2022/05/24 11:13:27;;;;;;;9.85;6.75;;;;;;;;;;4954122;28;20370;-72
2022/05/24 11:15:57;;;;;;;10.38;7.15;;;;;;;;;;4954017;28;20059;-72
2022/05/24 11:18:25;;;;;;;10.57;6.50;;;;;;;;;;4961862;28;20436;-72
2022/05/24 11:20:59;;;;;;;10.70;6.97;;;;;;;;;;4973616;28;20515;-70
2022/05/24 11:23:37;;;;;;;9.88;6.25;;;;;;;;;;4973301;28;20043;-72
2022/05/24 11:26:13;;;;;;;9.50;6.20;;;;;;;;;;4973394;28;20027;-74
2022/05/24 11:28:50;;;;;;;8.15;5.65;;;;;;;;;;4972826;28;20035;-75
2022/05/24 11:31:26;;;;;;;7.93;6.53;;;;;;;;;;4973039;28;20035;-72
2022/05/24 11:33:53;;;;;;;8.20;6.53;;;;;;;;;;4973267;28;20095;-71
2022/05/24 11:36:30;;;;;;;8.85;5.93;;;;;;;;;;4978344;28;20038;-72
2022/05/24 11:38:56;;;;;;;10.60;5.88;;;;;;;;;;4994696;28;20096;-71
2022/05/24 11:41:31;;;;;;;8.20;5.82;;;;;;;;;;4994950;28;20082;-73
2022/05/24 11:44:03;;;;;;;9.02;5.90;;;;;;;;;;4994710;28;20030;-70
2022/05/24 11:46:38;;;;;;;8.77;6.00;;;;;;;;;;4994165;28;20101;-71
2022/05/24 11:49:09;;;;;;;10.50;6.28;;;;;;;;;;4994655;28;20692;-71
2022/05/24 11:51:49;;;;;;;8.20;5.97;;;;;;;;;;4994192;28;20026;-68
2022/05/24 11:54:21;;;;;;;7.78;5.30;;;;;;;;;;4994191;28;20121;-72
2022/05/24 11:57:02;;;;;;;8.13;5.50;;;;;;;;;;4993808;28;20132;-70
2022/05/24 11:59:48;;;;;;;11.38;6.43;;;;;;;;;;4993613;28;20033;-71
2022/05/24 12:02:24;;;;;;;7.47;5.45;;;;;;;;;;4994490;28;20030;-72
2022/05/24 12:08:20;;;;;;;5.70;5.10;;;;;;;;;;4994276;28;20177;-70
2022/05/24 12:11:09;;;;;;;7.93;5.53;;;;;;;;;;4990636;28;20046;-70
2022/05/24 12:13:38;;;;;;;6.45;4.97;;;;;;;;;;4994509;28;20042;-68
2022/05/24 12:16:38;;;;;;;7.18;4.82;;;;;;;;;;4994173;28;20042;-68
2022/05/24 12:19:07;;;;;;;6.38;4.38;;;;;;;;;;4993541;28;20042;-68
2022/05/24 12:21:39;;;;;;;5.28;4.60;;;;;;;;;;4993329;28;20018;-68
2022/05/24 12:24:36;;;;;;;10.77;4.75;;;;;;;;;;4993457;28;20026;-68
2022/05/24 12:27:19;;;;;;;7.57;4.20;;;;;;;;;;4993227;28;20118;-67
2022/05/24 12:30:14;;;;;;;5.97;3.60;;;;;;;;;;4994145;28;20026;-70
2022/05/24 12:32:41;;;;;;;6.38;4.30;;;;;;;;;;4993769;28;20113;-70
2022/05/24 12:35:10;;;;;;;4.43;3.83;;;;;;;;;;4993347;28;20037;-70
2022/05/24 12:37:36;;;;;;;8.95;3.95;;;;;;;;;;4994064;28;20031;-72
2022/05/24 12:40:09;;;;;;;7.13;4.00;;;;;;;;;;4993035;28;20089;-66
2022/05/24 12:42:42;;;;;;;4.65;2.80;;;;;;;;;;4992687;28;20030;-66
2022/05/24 12:45:08;;;;;;;5.93;3.00;;;;;;;;;;4992564;28;20034;-66
2022/05/24 12:47:34;;;;;;;7.93;3.45;;;;;;;;;;4990753;28;20384;-66
2022/05/24 12:50:00;;;;;;;4.15;2.85;;;;;;;;;;4992462;28;20034;-66
2022/05/24 12:52:31;;;;;;;5.15;2.20;;;;;;;;;;4992451;28;20030;-65
2022/05/24 12:55:03;;;;;;;5.07;2.13;;;;;;;;;;4992132;28;20113;-65
2022/05/24 12:57:44;;;;;;;5.78;2.30;;;;;;;;;;4989794;28;20387;-65
2022/05/24 13:00:20;;;;;;;3.38;2.10;;;;;;;;;;4992892;28;20126;-70
2022/05/24 13:02:48;;;;;;;5.38;2.33;;;;;;;;;;4993215;28;20030;-66
2022/05/24 13:05:26;;;;;;;4.53;2.42;;;;;;;;;;4988214;28;20064;-65
2022/05/24 13:07:51;;;;;;;2.75;2.03;;;;;;;;;;4992031;28;20033;-66
2022/05/24 13:10:25;;;;;;;3.72;2.10;;;;;;;;;;4993139;28;20030;-69
2022/05/24 13:13:11;;;;;;;4.55;2.10;;;;;;;;;;4992999;28;20431;-66
2022/05/24 13:15:41;;;;;;;2.53;1.73;;;;;;;;;;4992762;28;20038;-64
2022/05/24 13:18:17;;;;;;;2.42;1.77;;;;;;;;;;4991231;28;20125;-68
2022/05/24 13:20:46;;;;;;;5.60;2.03;;;;;;;;;;4991042;28;20030;-67
2022/05/24 13:23:15;;;;;;;5.45;2.15;;;;;;;;;;4984282;28;20550;-67
2022/05/24 13:25:49;;;;;;;3.25;2.05;;;;;;;;;;4985111;28;20393;-67
2022/05/24 13:28:53;;;;;;;4.13;2.17;;;;;;;;;;4983293;28;20506;-67
2022/05/24 13:34:23;;;;;;;4.50;1.70;;;;;;;;;;4983559;28;20325;-66
2022/05/24 13:37:03;;;;;;;3.78;1.70;;;;;;;;;;4983420;28;20031;-67
2022/05/24 13:39:35;;;;;;;;;;;;;;;;;;4983576;28;20121;-69
2022/05/24 13:42:07;;;;;;;6.10;1.92;;;;;;;;;;4982581;28;19924;-67
2022/05/24 13:44:35;;;;;;;4.90;1.80;;;;;;;;;;4982219;28;20030;-64
2022/05/24 13:47:25;;;;;;;5.40;1.63;;;;;;;;;;4988623;28;20027;-64
2022/05/24 13:49:53;;;;;;;;;;;;;;;;;;4986442;28;21549;-64
2022/05/24 13:52:25;;;;;;;5.40;1.80;;;;;;;;;;4984960;28;19914;-64
2022/05/24 13:54:53;;;;;;;2.80;1.70;;;;;;;;;;4982500;28;20431;-66
2022/05/24 13:57:31;;;;;;;6.93;1.60;;;;;;;;;;4991855;28;20026;-64
2022/05/24 14:00:11;;;;;;;3.63;1.70;;;;;;;;;;4994942;28;20022;-65
2022/05/24 14:02:37;;;;;;;4.78;2.00;;;;;;;;;;4994213;28;20084;-64
2022/05/24 14:05:03;;;;;;;7.25;2.00;;;;;;;;;;4995677;28;20022;-66
2022/05/24 14:07:31;;;;;;;3.58;1.60;;;;;;;;;;4995153;28;20062;-64
2022/05/24 14:09:58;;;;;;;6.90;1.85;;;;;;;;;;4995383;28;20030;-63
2022/05/24 14:12:24;;;;;;;6.57;1.70;;;;;;;;;;4994982;28;20085;-64
2022/05/24 14:14:49;;;;;;;9.45;2.03;;;;;;;;;;4995418;28;20450;-66
2022/05/24 14:17:16;;;;;;;4.15;1.90;;;;;;;;;;4994624;28;20400;-67
2022/05/24 14:19:42;;;;;;;5.25;2.28;;;;;;;;;;4995149;28;20068;-64
2022/05/24 14:22:07;;;;;;;2.35;1.70;;;;;;;;;;4995117;28;20029;-64
2022/05/24 14:24:40;;;;;;;2.78;1.80;;;;;;;;;;4994904;28;20527;-62
2022/05/24 14:27:07;;;;;;;4.63;1.52;;;;;;;;;;4995139;28;20019;-64
2022/05/24 14:29:34;;;;;;;7.22;2.00;;;;;;;;;;4993557;28;20340;-65
2022/05/24 14:32:00;;;;;;;2.10;1.60;;;;;;;;;;4994991;28;20069;-66
2022/05/24 14:34:26;;;;;;;3.20;1.80;;;;;;;;;;4992920;28;20535;-66
2022/05/24 14:36:53;;;;;;;4.03;2.10;;;;;;;;;;4993755;28;20030;-65
2022/05/24 14:39:20;;;;;;;2.05;1.33;;;;;;;;;;4994937;28;20114;-65
2022/05/24 14:41:47;;;;;;;2.20;1.20;;;;;;;;;;4994873;28;20468;-66
2022/05/24 14:44:20;;;;;;;3.80;1.20;;;;;;;;;;4994842;28;20424;-65
2022/05/24 14:46:46;;;;;;;3.15;1.55;;;;;;;;;;4994427;28;20109;-67
2022/05/24 14:49:11;;;;;;;6.88;1.70;;;;;;;;;;4994805;28;20507;-66
2022/05/24 14:51:43;;;;;;;2.47;1.38;;;;;;;;;;4994953;28;20023;-66
2022/05/24 14:54:08;;;;;;;2.28;1.20;;;;;;;;;;4994789;28;20022;-63
2022/05/24 14:56:35;;;;;;;3.70;1.40;;;;;;;;;;4994746;28;20027;-64
2022/05/24 14:59:01;;;;;;;6.28;1.33;;;;;;;;;;4994085;28;20091;-63
2022/05/24 15:01:27;;;;;;;4.72;1.20;;;;;;;;;;4994073;28;20460;-65
2022/05/24 15:03:53;;;;;;;2.45;1.23;;;;;;;;;;4994401;28;20030;-65
2022/05/24 15:06:19;;;;;;;1.70;1.17;;;;;;;;;;4994356;28;20382;-65
2022/05/24 15:17:04;;;;;;;2.10;1.20;;;;;;;;;;4952874;28;20513;-64
2022/05/24 15:19:30;;;;;;;5.15;1.42;;;;;;;;;;4952767;29;20146;-63
2022/05/24 15:21:56;;;;;;;2.03;1.10;;;;;;;;;;4951823;29;20022;-64
2022/05/24 15:24:29;;;;;;;5.15;1.10;;;;;;;;;;4952501;29;20038;-64
2022/05/24 15:26:58;;;;;;;5.47;1.20;;;;;;;;;;4952814;29;20035;-63
2022/05/24 15:29:23;;;;;;;1.70;0.98;;;;;;;;;;4952358;29;20055;-64
2022/05/24 15:31:49;;;;;;;3.33;1.33;;;;;;;;;;4953216;29;20070;-65
2022/05/24 15:34:16;;;;;;;3.17;1.40;;;;;;;;;;4953370;29;20627;-64
2022/05/24 15:36:41;;;;;;;2.65;1.50;;;;;;;;;;4953476;29;20102;-64
2022/05/24 15:39:07;;;;;;;5.70;1.50;;;;;;;;;;4953352;29;20475;-64
2022/05/24 15:41:35;;;;;;;3.00;1.27;;;;;;;;;;4953196;29;20039;-64
2022/05/24 15:44:02;;;;;;;5.05;1.60;;;;;;;;;;4952990;29;20080;-64
2022/05/24 15:46:28;;;;;;;3.67;1.60;;;;;;;;;;4953257;29;20074;-64
2022/05/24 15:48:55;;;;;;;4.40;1.50;;;;;;;;;;4977321;28;20077;-63
2022/05/24 15:51:21;;;;;;;4.38;1.50;;;;;;;;;;4993910;28;20471;-64